Time;durP1;ratioP1;P1;durP2;ratioP2;P2;SDS_P1;SDS_P2;PMS_P1;PMS_P2;Temp;Humidity;BMP_temperature;BMP_pressure;BME280_temperature;BME280_humidity;BME280_pressure;Samples;Min_cycle;Max_cycle;Signal;HPM_P1;HPM_P2
2022/11/16 00:01:25;;;;;;;20.67;11.60;;;;;;;5.58;81.53;95065.65;1648377;87;21050;-64
2022/11/16 00:03:55;;;;;;;17.67;10.50;;;;;;;5.57;81.71;95073.08;1648295;87;21109;-64
2022/11/16 00:06:22;;;;;;;13.23;8.00;;;;;;;5.64;81.78;95073.47;1648407;87;21046;-64
2022/11/16 00:11:40;;;;;;;27.63;16.00;;;;;;;5.50;81.46;95071.39;1648613;87;21025;-64
2022/11/16 00:14:07;;;;;;;34.57;18.23;;;;;;;5.47;82.00;95067.49;1648183;87;21094;-64
2022/11/16 00:16:33;;;;;;;25.93;15.87;;;;;;;5.37;81.84;95071.05;1648509;87;21010;-64
2022/11/16 00:19:04;;;;;;;39.80;22.07;;;;;;;5.21;82.43;95071.13;1648159;87;21078;-64
2022/11/16 00:21:31;;;;;;;47.07;25.80;;;;;;;5.17;82.89;95068.56;1648231;87;20986;-64
2022/11/16 00:23:58;;;;;;;38.83;21.70;;;;;;;5.12;83.12;95060.75;1648517;87;21583;-64
2022/11/16 00:26:25;;;;;;;37.40;22.17;;;;;;;5.09;82.92;95065.11;1648599;87;21006;-64
2022/11/16 00:28:54;;;;;;;38.50;20.93;;;;;;;5.07;82.80;95056.43;1666518;86;21030;-64
2022/11/16 00:31:22;;;;;;;16.63;10.10;;;;;;;4.97;82.07;95049.94;1648340;87;21014;-64
2022/11/16 00:33:50;;;;;;;20.47;8.33;;;;;;;4.95;82.17;95045.15;1648063;87;21049;-64
2022/11/16 00:36:16;;;;;;;16.93;8.83;;;;;;;4.96;82.55;95036.86;1648489;87;21551;-64
2022/11/16 00:38:43;;;;;;;13.20;7.63;;;;;;;4.94;82.76;95041.26;1648640;87;21003;-64
2022/11/16 00:41:11;;;;;;;11.93;7.70;;;;;;;4.89;82.63;95053.04;1648367;85;21066;-64
2022/11/16 00:43:38;;;;;;;19.50;8.67;;;;;;;4.89;83.36;95046.92;1648665;87;21054;-64
2022/11/16 00:46:05;;;;;;;14.17;7.57;;;;;;;4.87;82.79;95052.17;1648267;87;21023;-64
2022/11/16 00:48:32;;;;;;;13.93;7.40;;;;;;;4.89;83.00;95048.22;1648220;87;21021;-64
2022/11/16 00:50:59;;;;;;;13.70;7.80;;;;;;;4.95;83.54;95048.20;1648437;87;21046;-64
2022/11/16 00:53:26;;;;;;;21.30;12.37;;;;;;;4.95;83.46;95045.15;1648127;86;21648;-64
2022/11/16 00:55:53;;;;;;;27.87;15.73;;;;;;;5.09;83.89;95029.81;1648403;87;21038;-64
2022/11/16 00:58:21;;;;;;;15.00;8.77;;;;;;;5.16;83.42;95029.75;1648351;87;21556;-64
2022/11/16 01:00:51;;;;;;;10.47;6.93;;;;;;;5.23;83.01;95024.50;1622191;87;21798;-64
2022/11/16 01:03:17;;;;;;;11.57;7.07;;;;;;;5.30;82.66;95024.89;1647957;87;21058;-64
2022/11/16 01:05:46;;;;;;;14.27;7.67;;;;;;;5.31;82.41;95021.38;1648468;87;21038;-65
2022/11/16 01:08:13;;;;;;;13.33;8.50;;;;;;;5.26;82.05;95020.09;1648342;87;21053;-64
2022/11/16 01:10:41;;;;;;;10.60;7.33;;;;;;;5.21;82.62;95017.52;1648345;87;21062;-64
2022/11/16 01:13:11;;;;;;;13.23;8.93;;;;;;;5.29;82.72;95019.20;1648475;87;21540;-64
2022/11/16 01:15:38;;;;;;;15.10;8.70;;;;;;;5.23;82.26;95021.88;1648545;87;21057;-64
2022/11/16 01:18:04;;;;;;;18.23;9.57;;;;;;;5.29;83.04;95027.05;1647967;87;21065;-64
2022/11/16 01:20:32;;;;;;;13.03;8.33;;;;;;;5.29;82.23;95024.02;1648575;87;21038;-64
2022/11/16 01:22:58;;;;;;;12.60;7.63;;;;;;;5.20;81.95;95028.00;1648197;87;21045;-64
2022/11/16 01:25:25;;;;;;;15.57;8.67;;;;;;;5.07;81.68;95016.77;1648472;87;21532;-64
2022/11/16 01:27:51;;;;;;;14.67;9.23;;;;;;;5.08;82.14;95017.17;1648438;87;21572;-64
2022/11/16 01:30:20;;;;;;;17.57;10.90;;;;;;;5.08;82.29;95018.48;1649201;85;21565;-64
2022/11/16 01:32:49;;;;;;;17.77;11.13;;;;;;;5.04;82.59;95011.56;1649019;86;21090;-64
2022/11/16 01:35:18;;;;;;;18.20;11.27;;;;;;;5.06;83.16;95008.47;1648335;87;21639;-64
2022/11/16 01:37:45;;;;;;;19.03;11.67;;;;;;;5.11;83.08;95005.38;1648479;87;21062;-64
2022/11/16 01:40:13;;;;;;;24.03;12.67;;;;;;;5.09;83.01;94998.02;1648231;87;21132;-64
2022/11/16 01:42:41;;;;;;;20.67;12.73;;;;;;;5.08;82.78;94992.78;1648357;87;21042;-64
2022/11/16 01:45:32;;;;;;;21.47;11.80;;;;;;;5.08;82.77;94983.63;1648119;87;21028;-64
2022/11/16 01:47:58;;;;;;;14.50;8.53;;;;;;;5.04;82.63;94990.64;1648422;87;21053;-64
2022/11/16 01:50:27;;;;;;;18.17;10.83;;;;;;;5.02;82.32;94988.47;1648522;85;21555;-64
2022/11/16 01:52:59;;;;;;;21.33;12.67;;;;;;;4.98;82.89;94983.69;1648204;86;21090;-64
2022/11/16 01:55:31;;;;;;;19.32;11.45;;;;;;;4.93;83.42;94984.16;1648622;87;21512;-64
2022/11/16 01:58:14;;;;;;;32.47;17.20;;;;;;;4.92;83.28;94977.65;1648395;85;21552;-65
2022/11/16 02:00:41;;;;;;;42.60;22.55;;;;;;;4.91;83.99;94970.25;1648672;87;21528;-64
2022/11/16 02:03:10;;;;;;;42.77;22.70;;;;;;;4.88;84.51;94973.30;1649941;86;21050;-64
2022/11/16 02:05:56;;;;;;;40.60;21.63;;;;;;;4.85;84.61;94971.58;1648590;86;21045;-64
2022/11/16 02:12:09;;;;;;;26.40;15.13;;;;;;;4.96;84.60;94956.70;1648129;87;21062;-64
2022/11/16 02:15:03;;;;;;;28.40;16.93;;;;;;;5.00;84.36;94951.00;1648456;87;21037;-64
2022/11/16 02:18:02;;;;;;;27.50;16.43;;;;;;;5.04;84.21;94950.53;1648123;87;21066;-64
2022/11/16 02:20:46;;;;;;;27.87;15.63;;;;;;;5.13;84.48;94939.56;1648327;87;21030;-64
2022/11/16 02:23:53;;;;;;;33.23;15.73;;;;;;;5.27;84.54;94938.60;1648491;87;21057;-64
2022/11/16 02:26:42;;;;;;;28.60;15.80;;;;;;;5.39;84.27;94930.61;1648122;87;21030;-64
2022/11/16 02:29:26;;;;;;;28.67;14.87;;;;;;;5.49;84.07;94927.03;1648582;87;21034;-64
2022/11/16 02:32:04;;;;;;;23.63;13.57;;;;;;;5.58;84.02;94932.19;1648271;87;21093;-64
2022/11/16 02:34:49;;;;;;;24.50;13.63;;;;;;;5.70;83.77;94924.66;1648369;87;21058;-65
2022/11/16 02:37:20;;;;;;;20.47;11.77;;;;;;;5.77;83.42;94922.82;1648567;87;21576;-65
2022/11/16 02:39:55;;;;;;;18.23;10.27;;;;;;;5.74;82.53;94921.55;1648573;87;21033;-65
2022/11/16 02:42:39;;;;;;;23.00;11.57;;;;;;;5.70;82.47;94919.88;1648302;87;21046;-65
2022/11/16 02:45:10;;;;;;;21.27;11.83;;;;;;;5.60;82.80;94921.27;1648239;87;21077;-64
2022/11/16 02:47:41;;;;;;;19.05;11.48;;;;;;;5.56;82.63;94916.07;1622781;87;21089;-65
2022/11/16 02:50:13;;;;;;;22.07;12.17;;;;;;;5.67;83.45;94912.02;1648433;87;21090;-64
2022/11/16 02:52:39;;;;;;;29.87;12.40;;;;;;;5.79;83.59;94907.97;1650280;85;21047;-64
2022/11/16 02:55:08;;;;;;;21.47;12.93;;;;;;;5.81;83.10;94904.45;1654257;87;21103;-65
2022/11/16 02:57:52;;;;;;;24.67;13.90;;;;;;;5.75;82.79;94897.13;1654373;87;21532;-64
2022/11/16 03:00:28;;;;;;;20.73;12.43;;;;;;;5.75;83.11;94894.52;1654172;87;21110;-64
2022/11/16 03:03:08;;;;;;;20.23;12.67;;;;;;;5.83;82.86;94892.22;1654474;87;21015;-64
2022/11/16 03:05:52;;;;;;;25.13;13.87;;;;;;;5.80;82.59;94882.23;1654103;87;21344;-64
2022/11/16 03:08:33;;;;;;;20.55;11.97;;;;;;;5.76;82.79;94881.84;1654300;87;21488;-65
2022/11/16 03:13:56;;;;;;;16.80;10.90;;;;;;;5.65;82.14;94876.73;1654150;87;21047;-65
2022/11/16 03:16:30;;;;;;;16.30;9.50;;;;;;;5.62;83.13;94881.55;1654315;87;21054;-65
2022/11/16 03:19:01;;;;;;;19.07;11.23;;;;;;;5.60;82.66;94876.77;1654394;87;21026;-65
2022/11/16 03:22:06;;;;;;;19.63;10.90;;;;;;;5.56;83.23;94872.89;1654530;87;21545;-65
2022/11/16 03:24:34;;;;;;;18.37;12.33;;;;;;;5.50;84.02;94877.76;1654561;87;21029;-65
2022/11/16 03:27:27;;;;;;;19.47;11.43;;;;;;;5.43;83.62;94873.47;1654550;87;20983;-65
2022/11/16 03:30:15;;;;;;;20.32;10.82;;;;;;;5.37;83.62;94877.02;1654459;87;21070;-65
2022/11/16 03:32:51;;;;;;;16.43;9.33;;;;;;;5.37;83.82;94872.23;1654565;87;21042;-65
2022/11/16 03:35:33;;;;;;;16.83;8.90;;;;;;;5.39;84.37;94871.34;1654305;87;21007;-65
2022/11/16 03:38:03;;;;;;;20.17;12.07;;;;;;;5.38;84.83;94862.19;1654466;87;21030;-65
2022/11/16 03:40:33;;;;;;;19.83;12.27;;;;;;;5.36;84.42;94862.19;1635572;87;21062;-64
2022/11/16 03:43:02;;;;;;;17.97;10.93;;;;;;;5.38;84.27;94860.88;1654491;87;21089;-64
2022/11/16 03:45:30;;;;;;;23.37;13.33;;;;;;;5.37;84.33;94852.17;1654231;87;20987;-64
2022/11/16 03:47:57;;;;;;;19.37;11.93;;;;;;;5.38;84.10;94855.20;1654449;87;21054;-64
2022/11/16 03:50:26;;;;;;;13.53;8.90;;;;;;;5.40;84.04;94849.52;1653836;86;21600;-65
2022/11/16 03:52:53;;;;;;;14.30;8.40;;;;;;;5.40;84.00;94846.04;1652608;86;21054;-65
2022/11/16 03:55:19;;;;;;;13.90;9.33;;;;;;;5.42;84.17;94838.59;1648652;87;21033;-64
2022/11/16 03:57:46;;;;;;;14.67;10.07;;;;;;;5.40;84.28;94835.58;1648293;87;21042;-64
2022/11/16 04:00:14;;;;;;;19.37;9.80;;;;;;;5.42;84.00;94837.73;1648255;87;21102;-65
2022/11/16 04:02:41;;;;;;;15.77;9.77;;;;;;;5.43;83.92;94840.31;1648410;87;21527;-64
2022/11/16 04:24:52;;;;;;;14.40;8.83;;;;;;;5.63;84.20;94813.92;1648462;87;21540;-64
2022/11/16 04:30:11;;;;;;;16.03;10.07;;;;;;;5.73;84.21;94807.28;1648581;87;21042;-64
2022/11/16 04:38:08;;;;;;;24.07;14.30;;;;;;;5.82;84.66;94805.83;1648621;87;21053;-64
2022/11/16 04:40:35;;;;;;;22.00;14.10;;;;;;;5.80;84.11;94803.70;1648343;87;21034;-65
2022/11/16 04:43:03;;;;;;;12.97;7.90;;;;;;;5.84;84.10;94799.69;1648465;87;21514;-64
2022/11/16 04:48:22;;;;;;;22.13;13.10;;;;;;;5.96;84.13;94795.23;1648513;85;21026;-64
2022/11/16 04:50:50;;;;;;;27.07;16.13;;;;;;;5.94;83.65;94794.38;1648535;85;21074;-64
2022/11/16 04:53:19;;;;;;;28.30;15.50;;;;;;;5.97;83.99;94796.95;1650321;86;21120;-65
2022/11/16 04:55:49;;;;;;;20.77;12.73;;;;;;;6.04;84.39;94796.84;1654887;85;21074;-65
2022/11/16 04:58:16;;;;;;;16.70;10.13;;;;;;;6.09;84.32;94792.85;1654598;87;21050;-64
2022/11/16 05:00:43;;;;;;;22.57;13.10;;;;;;;6.11;83.38;94797.63;1654259;87;21316;-64
2022/11/16 05:03:10;;;;;;;25.50;16.10;;;;;;;5.99;83.15;94797.34;1654401;87;21079;-64
2022/11/16 05:05:37;;;;;;;20.03;11.43;;;;;;;5.95;83.34;94792.20;1654319;87;21540;-64
2022/11/16 05:08:04;;;;;;;18.63;11.47;;;;;;;5.93;83.19;94788.70;1654156;87;21055;-64
2022/11/16 05:10:31;;;;;;;20.13;12.10;;;;;;;5.90;83.00;94782.20;1654419;87;21529;-64
2022/11/16 05:12:58;;;;;;;21.43;12.53;;;;;;;5.87;83.51;94789.63;1654371;87;21525;-64
2022/11/16 05:15:26;;;;;;;20.57;13.70;;;;;;;5.84;83.80;94787.05;1654159;87;21050;-65
2022/11/16 05:17:54;;;;;;;18.90;12.13;;;;;;;5.85;83.99;94782.26;1654063;87;21054;-64
2022/11/16 05:24:32;;;;;;;24.17;13.60;;;;;;;5.80;83.82;94776.22;1654316;87;21553;-64
2022/11/16 05:25:37;;;;;;;27.37;15.80;;;;;;;5.80;84.09;94772.30;1658092;85;21038;-65
2022/11/16 05:28:05;;;;;;;27.13;17.00;;;;;;;5.81;84.09;94774.02;1654541;85;21019;-65
2022/11/16 05:30:33;;;;;;;31.47;18.63;;;;;;;5.82;83.87;94771.39;1654321;87;21003;-65
2022/11/16 05:33:00;;;;;;;30.43;19.57;;;;;;;5.84;83.78;94767.42;1654285;87;21035;-65
2022/11/16 05:35:27;;;;;;;35.27;22.03;;;;;;;5.78;83.86;94775.36;1654344;87;21042;-65
2022/11/16 05:37:54;;;;;;;31.67;19.40;;;;;;;5.70;83.87;94776.78;1654284;87;21038;-64
2022/11/16 05:40:21;;;;;;;35.37;22.60;;;;;;;5.68;83.95;94778.99;1654231;87;21063;-64
2022/11/16 05:42:50;;;;;;;33.37;22.57;;;;;;;5.59;84.28;94775.61;1654989;85;21153;-64
2022/11/16 05:45:17;;;;;;;35.03;22.77;;;;;;;5.56;84.79;94792.63;1654418;87;21058;-65
2022/11/16 05:47:44;;;;;;;41.40;25.27;;;;;;;5.53;84.51;94791.38;1654373;87;21062;-64
2022/11/16 05:50:11;;;;;;;31.03;18.47;;;;;;;5.56;84.54;94783.48;1654057;87;21505;-64
2022/11/16 05:52:39;;;;;;;28.10;17.77;;;;;;;5.61;84.76;94790.83;1654457;87;21015;-64
2022/11/16 05:55:09;;;;;;;34.37;19.93;;;;;;;5.62;84.85;94790.41;1654653;87;21074;-64
2022/11/16 05:57:37;;;;;;;36.67;21.87;;;;;;;5.63;85.56;94784.28;1654210;85;21117;-65
2022/11/16 06:00:07;;;;;;;36.97;24.10;;;;;;;5.62;85.69;94778.19;1653303;87;21050;-65
2022/11/16 06:02:35;;;;;;;45.63;31.90;;;;;;;5.65;85.37;94775.97;1678414;85;21521;-65
2022/11/16 06:05:02;;;;;;;32.00;20.97;;;;;;;5.71;85.38;94773.71;1653787;87;21062;-66
2022/11/16 06:07:29;;;;;;;36.03;23.33;;;;;;;5.74;85.04;94772.35;1653261;87;21058;-69
2022/11/16 06:09:57;;;;;;;27.30;18.93;;;;;;;5.71;84.95;94766.72;1653888;87;20991;-68
2022/11/16 06:12:24;;;;;;;28.33;18.77;;;;;;;5.76;85.19;94775.83;1653688;87;21549;-69
2022/11/16 06:14:51;;;;;;;30.60;19.57;;;;;;;5.85;85.09;94777.02;1653979;87;21081;-65
2022/11/16 06:17:18;;;;;;;29.97;19.50;;;;;;;5.84;85.06;94769.58;1653806;87;21161;-65
2022/11/16 06:19:45;;;;;;;34.17;20.53;;;;;;;5.85;84.96;94770.48;1654159;87;21047;-65
2022/11/16 06:22:12;;;;;;;34.33;20.07;;;;;;;5.82;84.70;94765.26;1653753;87;21042;-66
2022/11/16 06:24:39;;;;;;;31.67;20.20;;;;;;;5.84;85.14;94770.03;1654062;87;21018;-67
2022/11/16 06:27:05;;;;;;;27.20;18.47;;;;;;;5.93;85.46;94765.13;1652852;87;21122;-68
2022/11/16 06:29:32;;;;;;;34.10;18.93;;;;;;;6.03;85.14;94757.15;1654272;87;21039;-67
2022/11/16 06:31:59;;;;;;;30.30;20.10;;;;;;;6.02;84.94;94757.16;1654444;87;21038;-67
2022/11/16 06:34:26;;;;;;;34.40;21.40;;;;;;;6.03;84.87;94758.91;1654128;87;21440;-65
2022/11/16 06:36:54;;;;;;;31.63;20.53;;;;;;;6.06;85.37;94758.86;1654292;87;20999;-68
2022/11/16 06:39:21;;;;;;;28.63;19.90;;;;;;;6.12;85.43;94762.68;1653464;87;21054;-67
2022/11/16 06:41:48;;;;;;;31.67;21.07;;;;;;;6.24;86.00;94759.02;1656109;85;21148;-66
2022/11/16 06:44:15;;;;;;;39.07;25.53;;;;;;;6.41;86.25;94756.15;1653833;87;21101;-67
2022/11/16 06:46:43;;;;;;;37.90;26.07;;;;;;;6.50;85.28;94752.94;1652898;86;21571;-65
2022/11/16 06:49:10;;;;;;;38.00;24.30;;;;;;;6.57;85.15;94747.58;1655834;85;21064;-70
2022/11/16 06:51:37;;;;;;;45.97;32.77;;;;;;;6.60;84.24;94740.97;1673829;86;21081;-65
2022/11/16 06:54:05;;;;;;;43.97;24.77;;;;;;;6.50;83.63;94739.84;1675597;85;21046;-65
2022/11/16 06:56:34;;;;;;;34.50;23.77;;;;;;;6.47;83.79;94733.77;1675562;85;21566;-68
2022/11/16 06:59:00;;;;;;;38.27;22.77;;;;;;;6.43;84.31;94725.10;1675538;86;21017;-73
2022/11/16 07:01:28;;;;;;;29.47;18.83;;;;;;;6.48;85.06;94725.03;1675550;85;21136;-69
2022/11/16 07:03:57;;;;;;;30.87;19.97;;;;;;;6.47;85.11;94718.90;1675886;85;21048;-66
2022/11/16 07:06:23;;;;;;;26.77;18.30;;;;;;;6.53;85.26;94729.75;1675200;85;21120;-63
2022/11/16 07:08:50;;;;;;;28.87;19.40;;;;;;;6.56;85.21;94720.52;1672440;86;21547;-66
2022/11/16 07:11:19;;;;;;;38.40;22.73;;;;;;;6.61;85.17;94726.55;1644629;87;21078;-65
2022/11/16 07:13:47;;;;;;;43.53;32.07;;;;;;;6.65;85.20;94718.17;1646829;87;21045;-66
2022/11/16 07:16:14;;;;;;;32.80;22.83;;;;;;;6.61;84.64;94718.68;1645875;87;21078;-68
2022/11/16 07:18:43;;;;;;;54.37;34.10;;;;;;;6.63;84.77;94725.22;1652331;87;21102;-69
2022/11/16 07:21:14;;;;;;;38.97;25.53;;;;;;;6.64;84.65;94723.00;1653049;87;21102;-69
2022/11/16 07:23:42;;;;;;;30.97;21.47;;;;;;;6.60;84.77;94728.76;1650682;87;21078;-65
2022/11/16 07:26:10;;;;;;;30.67;20.63;;;;;;;6.62;84.85;94720.84;1654128;87;20995;-65
2022/11/16 07:28:39;;;;;;;31.30;21.30;;;;;;;6.61;84.86;94713.89;1653134;86;21392;-68
2022/11/16 07:31:10;;;;;;;30.60;20.37;;;;;;;6.61;84.69;94710.81;1652109;87;21146;-68
2022/11/16 07:33:38;;;;;;;32.40;20.53;;;;;;;6.65;84.74;94707.27;1653224;87;21102;-65
2022/11/16 07:36:14;;;;;;;29.87;19.47;;;;;;;6.70;84.81;94704.53;1649368;87;21088;-67
2022/11/16 07:38:41;;;;;;;38.47;28.43;;;;;;;6.77;85.04;94705.30;1653141;87;21062;-66
2022/11/16 07:41:13;;;;;;;30.93;22.30;;;;;;;6.82;84.99;94695.59;1653505;87;21106;-64
2022/11/16 07:43:42;;;;;;;35.60;22.35;;;;;;;6.86;85.16;94694.66;1651968;86;21145;-69
2022/11/16 07:46:15;;;;;;;33.23;20.67;;;;;;;6.91;84.97;94691.05;1653407;86;21167;-66
2022/11/16 07:48:42;;;;;;;32.33;20.23;;;;;;;7.01;85.33;94699.61;1653610;87;21071;-67
2022/11/16 07:51:15;;;;;;;28.37;19.43;;;;;;;7.06;84.33;94696.90;1630541;87;21045;-66
2022/11/16 07:53:44;;;;;;;31.20;20.93;;;;;;;6.99;84.24;94697.45;1650863;87;21018;-66
2022/11/16 07:56:11;;;;;;;29.83;19.90;;;;;;;7.03;84.92;94688.64;1641089;87;21011;-65
2022/11/16 07:58:40;;;;;;;30.97;20.80;;;;;;;7.09;84.79;94694.20;1641167;87;21022;-65
2022/11/16 08:01:13;;;;;;;29.60;20.17;;;;;;;7.17;84.88;94694.91;1641095;87;21070;-66
2022/11/16 08:03:42;;;;;;;31.10;20.75;;;;;;;7.14;84.65;94692.36;1640244;87;21081;-64
2022/11/16 08:06:16;;;;;;;27.57;19.00;;;;;;;7.09;84.45;94691.59;1640460;87;21691;-65
2022/11/16 08:08:43;;;;;;;35.17;21.10;;;;;;;7.18;84.85;94691.38;1639410;87;21726;-66
2022/11/16 08:11:11;;;;;;;27.90;16.87;;;;;;;7.27;84.14;94689.04;1640928;87;21011;-63
2022/11/16 08:13:41;;;;;;;25.47;17.33;;;;;;;7.20;83.06;94684.80;1641594;87;21033;-61
2022/11/16 08:16:13;;;;;;;27.60;19.47;;;;;;;7.22;83.62;94690.89;1640788;87;21081;-62
2022/11/16 08:18:41;;;;;;;29.93;20.43;;;;;;;7.13;83.23;94690.61;1641085;87;21021;-64
2022/11/16 08:21:11;;;;;;;31.37;20.80;;;;;;;7.15;83.43;94693.62;1640551;87;21108;-67
2022/11/16 08:23:39;;;;;;;32.17;20.17;;;;;;;7.07;83.25;94685.50;1640339;87;22133;-61
2022/11/16 08:26:13;;;;;;;28.53;19.63;;;;;;;7.09;83.36;94678.47;1639789;87;22192;-64
2022/11/16 08:28:41;;;;;;;29.48;19.17;;;;;;;7.12;83.71;94679.27;1641173;87;21499;-66
2022/11/16 08:31:19;;;;;;;30.30;18.40;;;;;;;7.15;83.97;94679.64;1614366;87;21070;-68
2022/11/16 08:33:48;;;;;;;26.70;18.47;;;;;;;7.10;83.37;94682.81;1640874;87;21077;-65
2022/11/16 08:36:16;;;;;;;31.83;21.90;;;;;;;7.04;83.27;94673.31;1641068;87;21018;-67
2022/11/16 08:38:45;;;;;;;31.67;21.70;;;;;;;7.03;84.03;94672.91;1641062;87;21026;-63
2022/11/16 08:41:13;;;;;;;32.90;20.07;;;;;;;7.05;84.24;94671.55;1613808;87;21010;-64
2022/11/16 08:43:40;;;;;;;36.20;22.57;;;;;;;7.06;84.64;94670.22;1640444;87;21018;-65
2022/11/16 08:46:09;;;;;;;35.70;24.30;;;;;;;7.06;84.44;94666.28;1639503;87;21128;-66
2022/11/16 08:48:38;;;;;;;36.37;23.67;;;;;;;7.10;84.50;94670.55;1640743;87;21515;-67
2022/11/16 08:51:09;;;;;;;38.87;25.47;;;;;;;7.12;84.22;94667.91;1640466;87;21528;-67
2022/11/16 08:53:36;;;;;;;41.90;26.70;;;;;;;7.14;84.40;94671.38;1640552;86;21128;-65
2022/11/16 08:56:07;;;;;;;46.80;30.57;;;;;;;7.13;84.39;94665.69;1660488;86;21053;-64
2022/11/16 08:58:38;;;;;;;42.97;29.17;;;;;;;7.15;84.67;94663.91;1660375;86;21096;-67
2022/11/16 09:01:16;;;;;;;42.83;27.83;;;;;;;7.17;84.90;94652.94;1661093;86;21137;-67
2022/11/16 09:03:43;;;;;;;39.07;26.20;;;;;;;7.22;84.90;94660.27;1660882;86;21061;-64
2022/11/16 09:06:12;;;;;;;30.63;21.00;;;;;;;7.27;84.80;94663.66;1660685;86;21104;-65
2022/11/16 09:08:41;;;;;;;36.57;24.63;;;;;;;7.27;84.53;94661.48;1660070;86;21153;-64
2022/11/16 09:11:13;;;;;;;30.43;19.17;;;;;;;7.28;84.93;94662.78;1660983;86;21039;-67
2022/11/16 09:13:39;;;;;;;28.93;18.43;;;;;;;7.35;84.63;94662.19;1660226;86;21125;-65
2022/11/16 09:16:07;;;;;;;33.10;19.60;;;;;;;7.41;84.74;94659.45;1661528;86;21509;-61
2022/11/16 09:18:34;;;;;;;29.20;19.80;;;;;;;7.51;84.71;94662.71;1661253;86;21054;-63
2022/11/16 09:21:01;;;;;;;28.97;19.90;;;;;;;7.56;84.64;94650.38;1660139;86;21145;-64
2022/11/16 09:23:28;;;;;;;27.83;19.00;;;;;;;7.58;84.68;94650.77;1660317;86;21089;-65
2022/11/16 09:25:54;;;;;;;29.37;17.93;;;;;;;7.65;85.08;94655.41;1661444;86;21102;-63
2022/11/16 09:28:22;;;;;;;30.10;19.87;;;;;;;7.74;84.81;94653.90;1660750;86;21058;-64
2022/11/16 09:30:50;;;;;;;28.87;20.40;;;;;;;7.82;84.77;94652.41;1660291;86;21015;-63
2022/11/16 09:33:17;;;;;;;29.87;19.63;;;;;;;7.86;84.12;94646.20;1660150;86;21089;-65
2022/11/16 09:35:45;;;;;;;26.10;18.07;;;;;;;7.93;84.55;94645.13;1660185;86;22264;-66
2022/11/16 09:38:12;;;;;;;23.27;16.40;;;;;;;8.11;84.93;94637.25;1660626;86;21053;-63
2022/11/16 09:40:44;;;;;;;26.30;17.17;;;;;;;8.29;84.81;94625.88;1660775;86;21066;-64
2022/11/16 09:43:52;;;;;;;23.80;15.33;;;;;;;8.41;84.35;94628.23;1660263;86;21069;-63
2022/11/16 09:46:36;;;;;;;22.42;15.53;;;;;;;8.58;83.98;94616.83;1661404;86;21517;-64
2022/11/16 09:49:25;;;;;;;21.75;15.75;;;;;;;8.83;84.44;94615.70;1661312;86;21497;-65
2022/11/16 09:51:57;;;;;;;23.62;14.95;;;;;;;8.99;83.08;94604.76;1660502;86;21089;-65
2022/11/16 09:54:28;;;;;;;23.30;15.10;;;;;;;9.18;83.65;94602.02;1660177;86;21057;-67
2022/11/16 09:56:59;;;;;;;24.07;15.28;;;;;;;9.33;82.36;94593.27;1657067;84;21654;-68
2022/11/16 09:59:36;;;;;;;23.38;15.65;;;;;;;9.49;82.22;94593.20;1660853;86;21105;-68
2022/11/16 10:02:35;;;;;;;21.80;14.98;;;;;;;9.59;82.14;94586.74;1660788;86;21584;-67
2022/11/16 10:05:20;;;;;;;23.05;14.85;;;;;;;9.66;81.01;94589.59;1660779;86;21090;-67
2022/11/16 10:07:52;;;;;;;22.10;15.53;;;;;;;9.58;80.17;94591.62;1660306;86;21085;-66
2022/11/16 10:10:38;;;;;;;21.73;15.35;;;;;;;9.49;80.07;94585.30;1634574;86;21533;-66
2022/11/16 10:13:40;;;;;;;23.83;15.18;;;;;;;9.41;80.28;94588.63;1658502;86;22236;-66
2022/11/16 10:16:17;;;;;;;22.77;14.75;;;;;;;9.34;80.54;94589.26;1660365;86;21073;-66
2022/11/16 10:18:58;;;;;;;25.95;15.98;;;;;;;9.28;80.53;94580.24;1658182;86;21066;-66
2022/11/16 10:22:09;;;;;;;21.73;15.30;;;;;;;9.23;80.40;94578.20;1660455;86;21591;-66
2022/11/16 10:25:00;;;;;;;22.20;15.88;;;;;;;9.18;80.56;94570.89;1660746;86;21042;-66
2022/11/16 10:27:47;;;;;;;23.12;15.68;;;;;;;9.13;80.77;94572.80;1661286;86;20994;-66
2022/11/16 10:30:19;;;;;;;21.73;15.25;;;;;;;9.20;80.98;94568.63;1645831;86;21038;-66
2022/11/16 10:33:03;;;;;;;23.62;17.23;;;;;;;9.26;81.12;94571.52;1661670;86;21074;-66
2022/11/16 10:35:42;;;;;;;22.67;15.20;;;;;;;9.26;81.13;94563.62;1661880;86;21552;-66
2022/11/16 10:38:22;;;;;;;22.77;15.38;;;;;;;9.23;80.75;94558.45;1661575;86;21009;-66
2022/11/16 10:41:13;;;;;;;23.60;16.23;;;;;;;9.26;81.48;94561.84;1661388;86;21054;-66
2022/11/16 10:43:42;;;;;;;21.80;16.60;;;;;;;9.30;81.07;94549.48;1661690;86;21062;-66
2022/11/16 10:46:26;;;;;;;23.62;15.08;;;;;;;9.23;80.80;94550.11;1661936;86;21011;-66
2022/11/16 10:49:28;;;;;;;21.82;15.80;;;;;;;9.22;80.84;94552.34;1661729;86;21046;-66
2022/11/16 10:51:54;;;;;;;20.52;14.05;;;;;;;9.21;80.88;94544.02;1661582;86;21544;-65
2022/11/16 10:54:21;;;;;;;19.42;12.60;;;;;;;9.27;80.74;94546.91;1660989;86;21061;-66
2022/11/16 10:57:04;;;;;;;19.50;12.73;;;;;;;9.33;80.03;94546.74;1654404;87;21046;-66
2022/11/16 10:59:46;;;;;;;15.28;12.23;;;;;;;9.45;80.66;94546.38;1653158;87;21129;-66
2022/11/16 11:02:33;;;;;;;20.27;12.53;;;;;;;9.70;80.24;94545.58;1653896;86;21102;-66
2022/11/16 11:05:19;;;;;;;19.57;13.10;;;;;;;9.74;79.73;94547.21;1654391;86;21566;-66
2022/11/16 11:07:53;;;;;;;17.75;12.55;;;;;;;9.80;79.86;94532.97;1654090;87;21015;-67
2022/11/16 11:10:30;;;;;;;19.82;12.65;;;;;;;9.81;78.86;94530.30;1653740;86;21043;-66
2022/11/16 11:13:05;;;;;;;19.70;12.47;;;;;;;9.80;79.28;94526.39;1654308;87;21106;-66
2022/11/16 11:15:32;;;;;;;17.37;12.60;;;;;;;9.82;79.74;94521.47;1654688;86;21042;-67
2022/11/16 11:18:25;;;;;;;17.45;13.30;;;;;;;9.81;79.95;94522.39;1654538;87;21019;-67
2022/11/16 11:21:19;;;;;;;17.75;12.73;;;;;;;9.82;79.90;94515.34;1654566;87;21078;-67
2022/11/16 11:23:51;;;;;;;20.17;13.68;;;;;;;9.86;79.77;94513.03;1656076;86;21025;-67
2022/11/16 11:26:37;;;;;;;21.23;15.23;;;;;;;9.84;79.67;94517.02;1658420;86;21008;-66
2022/11/16 11:29:26;;;;;;;26.82;19.02;;;;;;;9.79;79.43;94518.09;1639541;86;21041;-66
2022/11/16 11:32:05;;;;;;;19.12;13.72;;;;;;;9.68;79.38;94511.86;1658171;86;21018;-66
2022/11/16 11:34:44;;;;;;;21.73;14.80;;;;;;;9.58;80.18;94510.44;1658301;86;21049;-66
2022/11/16 11:37:26;;;;;;;20.12;14.40;;;;;;;9.52;80.10;94502.26;1658697;86;21480;-67
2022/11/16 11:40:18;;;;;;;23.38;15.40;;;;;;;9.42;80.31;94503.00;1658188;86;21010;-67
2022/11/16 11:42:58;;;;;;;19.98;14.55;;;;;;;9.31;80.15;94509.07;1658392;86;21056;-66
2022/11/16 11:45:55;;;;;;;22.35;15.48;;;;;;;9.24;80.36;94510.16;1657482;86;21092;-66
2022/11/16 11:48:51;;;;;;;21.93;14.30;;;;;;;9.20;80.86;94508.09;1653662;86;21059;-66
2022/11/16 11:51:35;;;;;;;20.90;14.55;;;;;;;9.20;80.98;94501.97;1658202;86;21132;-66
2022/11/16 11:54:04;;;;;;;19.92;14.53;;;;;;;9.16;81.23;94495.06;1658436;86;21520;-66
2022/11/16 11:56:33;;;;;;;24.20;16.00;;;;;;;9.06;81.35;94496.66;1658171;86;21053;-66
2022/11/16 11:59:02;;;;;;;22.58;14.98;;;;;;;8.95;81.27;94493.50;1658390;86;21582;-66
2022/11/16 12:02:06;;;;;;;21.23;15.75;;;;;;;8.90;81.72;94498.04;1658320;86;21074;-66
2022/11/16 12:04:53;;;;;;;19.32;13.83;;;;;;;8.87;81.50;94495.50;1658394;86;21010;-66
2022/11/16 12:07:43;;;;;;;21.93;15.72;;;;;;;8.79;81.94;94494.38;1651430;86;21551;-65
2022/11/16 12:10:30;;;;;;;20.65;14.53;;;;;;;8.70;81.92;94492.50;1658528;86;21053;-65
2022/11/16 12:13:03;;;;;;;19.17;14.23;;;;;;;8.63;82.56;94489.17;1658579;86;21061;-65
2022/11/16 12:15:52;;;;;;;21.93;14.60;;;;;;;8.61;82.58;94486.58;1658272;86;21089;-65
2022/11/16 12:18:50;;;;;;;20.80;14.33;;;;;;;8.60;82.76;94494.07;1646889;86;21034;-66
2022/11/16 12:21:28;;;;;;;22.02;15.35;;;;;;;8.56;83.05;94483.22;1658443;86;21049;-65
2022/11/16 12:24:09;;;;;;;21.82;15.38;;;;;;;8.55;83.00;94485.91;1657989;86;21557;-66
2022/11/16 12:27:16;;;;;;;25.00;16.00;;;;;;;8.56;83.21;94479.27;1658359;86;21005;-65
2022/11/16 12:29:57;;;;;;;22.70;15.23;;;;;;;8.59;83.20;94477.91;1658361;86;21072;-65
2022/11/16 12:32:56;;;;;;;21.93;15.53;;;;;;;8.62;83.07;94472.55;1658431;86;21001;-67
2022/11/16 12:35:40;;;;;;;21.47;15.63;;;;;;;8.62;83.29;94475.17;1658380;86;21535;-67
2022/11/16 12:38:25;;;;;;;22.22;15.90;;;;;;;8.67;83.58;94477.67;1657857;86;21056;-67